Terminal Aerodrome Forecast
Issued by NWS

Home | Current Version | Previous Version | Text Only | Print | Product List | Glossary On
Versions: 1 2 3 4 5 6 7 8 9 10 11 12 13 14 15
000
FTUS42 TJSJ 032340
TAFJPS
TAF
TJPS 032340Z 0400/0424 VRB05KT P6SM FEW030 SCT060
     FM041500 13012KT P6SM FEW030 SCT060
     FM042300 VRB05KT P6SM FEW025 SCT050
      AMD NOT SKED TIL 040300=

USA.gov is the U.S. government's official web portal to all federal, state and local government web resources and services.